EZY53ML GCTS-EGGD
Flight info
| Callsign | EZY53ML |
|---|---|
| Flight time | N/A |
| Altitude | 34000 |
| Route | KONBA UN866 BEXAL DCT DEMOS DCT KORUL DCT KOLEK DCT EBOMO DCT RUSIB DCT NOZHU DCT SHIRI DCT TOJAQ |
| Aircraft | A319/M-SDE2E3FGIJ1RWXYZ/LB1 |
Departure
| Time | 2026-05-05 15:59 |
|---|---|
| Airport | Tenerife Sur Airport (GCTS) |
Arrival
| Time | N/A |
|---|---|
| Airport | Bristol Airport (EGGD) |
| Time | Latitude | Longitude | Altitude | Speed | Heading |
|---|---|---|---|---|---|
| 2026-05-05 15:28 | 28.04731 | -16.57630 | 226 ft | 0 kts | 339° |
| 2026-05-05 15:48 | 28.04719 | -16.57625 | 229 ft | 4 kts | 339° |
| 2026-05-05 15:48 | 28.04694 | -16.57614 | 226 ft | 3 kts | 338° |
| 2026-05-05 15:48 | 28.04674 | -16.57604 | 226 ft | 4 kts | 317° |
| 2026-05-05 15:49 | 28.04662 | -16.57580 | 227 ft | 4 kts | 274° |
| 2026-05-05 15:49 | 28.04664 | -16.57557 | 224 ft | 0 kts | 248° |
| 2026-05-05 15:52 | 28.04663 | -16.57558 | 224 ft | 0 kts | 248° |
| 2026-05-05 15:52 | 28.04658 | -16.57574 | 226 ft | 7 kts | 248° |
| 2026-05-05 15:52 | 28.04628 | -16.57659 | 224 ft | 14 kts | 249° |
| 2026-05-05 15:52 | 28.04594 | -16.57758 | 224 ft | 13 kts | 249° |
| 2026-05-05 15:53 | 28.04560 | -16.57854 | 226 ft | 13 kts | 248° |
| 2026-05-05 15:53 | 28.04509 | -16.57924 | 224 ft | 12 kts | 178° |
| 2026-05-05 15:53 | 28.04426 | -16.57901 | 222 ft | 11 kts | 188° |
| 2026-05-05 15:53 | 28.04384 | -16.57970 | 222 ft | 11 kts | 249° |
| 2026-05-05 15:54 | 28.04356 | -16.58047 | 222 ft | 11 kts | 245° |
| 2026-05-05 15:54 | 28.04314 | -16.58155 | 224 ft | 21 kts | 248° |
| 2026-05-05 15:54 | 28.04261 | -16.58308 | 224 ft | 21 kts | 248° |
| 2026-05-05 15:54 | 28.04212 | -16.58457 | 223 ft | 20 kts | 250° |
| 2026-05-05 15:55 | 28.04168 | -16.58605 | 222 ft | 20 kts | 248° |
| 2026-05-05 15:55 | 28.04110 | -16.58767 | 213 ft | 24 kts | 248° |
| 2026-05-05 15:55 | 28.04052 | -16.58933 | 211 ft | 18 kts | 249° |
| 2026-05-05 15:55 | 28.04017 | -16.58995 | 210 ft | 0 kts | 212° |
| 2026-05-05 15:57 | 28.04011 | -16.58997 | 218 ft | 5 kts | 201° |
| 2026-05-05 15:58 | 28.03948 | -16.58964 | 205 ft | 15 kts | 131° |
| 2026-05-05 15:58 | 28.03902 | -16.58828 | 196 ft | 20 kts | 83° |
| 2026-05-05 15:58 | 28.03965 | -16.58631 | 206 ft | 50 kts | 69° |
| 2026-05-05 15:58 | 28.04193 | -16.57977 | 197 ft | 126 kts | 69° |
| 2026-05-05 15:59 | 28.04591 | -16.56852 | 294 ft | 172 kts | 70° |
| 2026-05-05 15:59 | 28.05066 | -16.55601 | 1018 ft | 173 kts | 67° |
| 2026-05-05 15:59 | 28.05521 | -16.54336 | 1790 ft | 178 kts | 65° |
| 2026-05-05 15:59 | 28.05998 | -16.52943 | 2087 ft | 201 kts | 66° |
| 2026-05-05 16:00 | 28.06531 | -16.51378 | 2400 ft | 225 kts | 66° |
| 2026-05-05 16:00 | 28.07130 | -16.49629 | 2753 ft | 249 kts | 66° |
| 2026-05-05 16:00 | 28.07768 | -16.47765 | 3352 ft | 261 kts | 67° |
| 2026-05-05 16:00 | 28.08428 | -16.45830 | 4127 ft | 266 kts | 67° |
| 2026-05-05 16:01 | 28.09093 | -16.43858 | 4931 ft | 270 kts | 69° |
| 2026-05-05 16:01 | 28.09749 | -16.41833 | 5672 ft | 276 kts | 70° |
| 2026-05-05 16:01 | 28.10412 | -16.39765 | 6402 ft | 283 kts | 70° |
| 2026-05-05 16:01 | 28.11083 | -16.37663 | 7053 ft | 290 kts | 70° |
| 2026-05-05 16:02 | 28.11782 | -16.35483 | 7766 ft | 295 kts | 70° |
| 2026-05-05 16:02 | 28.12496 | -16.33271 | 8426 ft | 303 kts | 70° |
| 2026-05-05 16:02 | 28.13231 | -16.30996 | 9077 ft | 310 kts | 70° |
| 2026-05-05 16:02 | 28.13967 | -16.28712 | 9809 ft | 314 kts | 70° |
| 2026-05-05 16:03 | 28.14725 | -16.26359 | 10318 ft | 326 kts | 70° |
| 2026-05-05 16:03 | 28.15532 | -16.23853 | 10513 ft | 350 kts | 70° |
| 2026-05-05 16:03 | 28.16387 | -16.21202 | 10876 ft | 364 kts | 70° |
| 2026-05-05 16:03 | 28.17264 | -16.18477 | 11426 ft | 371 kts | 70° |
| 2026-05-05 16:04 | 28.18156 | -16.15700 | 12025 ft | 377 kts | 70° |
| 2026-05-05 16:04 | 28.19051 | -16.12914 | 12597 ft | 384 kts | 70° |
| 2026-05-05 16:04 | 28.19994 | -16.10052 | 13176 ft | 390 kts | 66° |
| 2026-05-05 16:04 | 28.21405 | -16.07407 | 13731 ft | 395 kts | 48° |
| 2026-05-05 16:05 | 28.23419 | -16.05297 | 14228 ft | 394 kts | 30° |
| 2026-05-05 16:05 | 28.25855 | -16.03911 | 14745 ft | 390 kts | 12° |
| 2026-05-05 16:05 | 28.28491 | -16.03336 | 15271 ft | 383 kts | 355° |
| 2026-05-05 16:05 | 28.31119 | -16.03528 | 15885 ft | 377 kts | 346° |
| 2026-05-05 16:06 | 28.33742 | -16.03550 | 16458 ft | 390 kts | 1° |
| 2026-05-05 16:06 | 28.36471 | -16.02992 | 17033 ft | 397 kts | 7° |
| 2026-05-05 16:06 | 28.39147 | -16.02239 | 17584 ft | 402 kts | 9° |
| 2026-05-05 16:06 | 28.41864 | -16.01409 | 18137 ft | 405 kts | 9° |
| 2026-05-05 16:07 | 28.44603 | -16.00597 | 18624 ft | 408 kts | 8° |
| 2026-05-05 16:07 | 28.47393 | -15.99830 | 19073 ft | 412 kts | 6° |
| 2026-05-05 16:07 | 28.50170 | -15.99126 | 19506 ft | 415 kts | 5° |
| 2026-05-05 16:07 | 28.53016 | -15.98448 | 19951 ft | 419 kts | 5° |
| 2026-05-05 16:08 | 28.55889 | -15.97784 | 20399 ft | 423 kts | 4° |
| 2026-05-05 16:08 | 28.58799 | -15.97113 | 20869 ft | 427 kts | 4° |
| 2026-05-05 16:08 | 28.61730 | -15.96432 | 21283 ft | 432 kts | 4° |
| 2026-05-05 16:08 | 28.64651 | -15.95741 | 21703 ft | 436 kts | 4° |
| 2026-05-05 16:09 | 28.67650 | -15.95019 | 22119 ft | 441 kts | 4° |
| 2026-05-05 16:09 | 28.70668 | -15.94286 | 22542 ft | 445 kts | 4° |
| 2026-05-05 16:09 | 28.73721 | -15.93541 | 22957 ft | 450 kts | 4° |
| 2026-05-05 16:09 | 28.76765 | -15.92797 | 23356 ft | 454 kts | 4° |
| 2026-05-05 16:10 | 28.79878 | -15.92045 | 23729 ft | 458 kts | 4° |
| 2026-05-05 16:10 | 28.83024 | -15.91290 | 24075 ft | 461 kts | 4° |
| 2026-05-05 16:10 | 28.86137 | -15.90545 | 24437 ft | 463 kts | 4° |
| 2026-05-05 16:10 | 28.89294 | -15.89787 | 24879 ft | 463 kts | 4° |
| 2026-05-05 16:11 | 28.92458 | -15.89023 | 25301 ft | 464 kts | 4° |
| 2026-05-05 16:11 | 29.01974 | -15.86713 | 26318 ft | 470 kts | 4° |
| 2026-05-05 16:12 | 29.05192 | -15.85926 | 26646 ft | 473 kts | 4° |
| 2026-05-05 16:12 | 29.11667 | -15.84353 | 27293 ft | 477 kts | 3° |
| 2026-05-05 16:13 | 29.21462 | -15.81989 | 28273 ft | 485 kts | 4° |
| 2026-05-05 16:13 | 29.24774 | -15.81182 | 28574 ft | 487 kts | 4° |
| 2026-05-05 16:13 | 29.28105 | -15.80369 | 28866 ft | 490 kts | 4° |
| 2026-05-05 16:14 | 29.34824 | -15.78735 | 29442 ft | 495 kts | 4° |
| 2026-05-05 16:14 | 29.41570 | -15.77085 | 29992 ft | 500 kts | 4° |
| 2026-05-05 16:15 | 29.48424 | -15.75410 | 30576 ft | 502 kts | 4° |
| 2026-05-05 16:15 | 29.55225 | -15.73744 | 31109 ft | 503 kts | 4° |
| 2026-05-05 16:16 | 29.60925 | -15.72348 | 31656 ft | 502 kts | 4° |
| 2026-05-05 16:16 | 29.67763 | -15.70673 | 32286 ft | 502 kts | 3° |
| 2026-05-05 16:17 | 29.74595 | -15.68991 | 32917 ft | 501 kts | 3° |
| 2026-05-05 16:17 | 29.78002 | -15.68151 | 33213 ft | 501 kts | 3° |
| 2026-05-05 16:18 | 29.84778 | -15.66486 | 33834 ft | 500 kts | 2° |
| 2026-05-05 16:18 | 29.88179 | -15.65654 | 34035 ft | 500 kts | 2° |
| 2026-05-05 16:19 | 29.98252 | -15.63169 | 34064 ft | 490 kts | 2° |
| 2026-05-05 16:19 | 30.08190 | -15.60714 | 34066 ft | 486 kts | 3° |
| 2026-05-05 16:20 | 30.21406 | -15.57442 | 34070 ft | 486 kts | 3° |
| 2026-05-05 16:22 | 30.37935 | -15.53324 | 34105 ft | 484 kts | 4° |
| 2026-05-05 16:23 | 30.51062 | -15.50063 | 34095 ft | 482 kts | 4° |
| 2026-05-05 16:23 | 30.60904 | -15.47603 | 34114 ft | 481 kts | 5° |
| 2026-05-05 16:24 | 30.67405 | -15.45970 | 34109 ft | 478 kts | 5° |
| 2026-05-05 16:25 | 30.77154 | -15.43513 | 34101 ft | 475 kts | 5° |
| 2026-05-05 16:25 | 30.86830 | -15.41101 | 34128 ft | 474 kts | 5° |
| 2026-05-05 16:26 | 30.99492 | -15.37895 | 34100 ft | 462 kts | 6° |
| 2026-05-05 16:27 | 31.05783 | -15.36309 | 34100 ft | 462 kts | 6° |
| 2026-05-05 16:27 | 31.12041 | -15.34733 | 34096 ft | 461 kts | 6° |
| 2026-05-05 16:28 | 31.18320 | -15.33152 | 34117 ft | 460 kts | 8° |
| 2026-05-05 16:28 | 31.24567 | -15.31556 | 34114 ft | 458 kts | 8° |
| 2026-05-05 16:29 | 31.30676 | -15.29399 | 34107 ft | 463 kts | 22° |
| 2026-05-05 16:29 | 31.36159 | -15.25469 | 34104 ft | 466 kts | 31° |
| 2026-05-05 16:30 | 31.41563 | -15.21268 | 34104 ft | 465 kts | 31° |
| 2026-05-05 16:30 | 31.46961 | -15.17084 | 34126 ft | 464 kts | 31° |
| 2026-05-05 16:31 | 31.52296 | -15.12942 | 34121 ft | 461 kts | 31° |
| 2026-05-05 16:31 | 31.57635 | -15.08777 | 34118 ft | 460 kts | 31° |
| 2026-05-05 16:32 | 31.62938 | -15.04642 | 34116 ft | 459 kts | 31° |
| 2026-05-05 16:32 | 31.68263 | -15.00485 | 34109 ft | 458 kts | 31° |
| 2026-05-05 16:33 | 31.73544 | -14.96356 | 34123 ft | 457 kts | 31° |
| 2026-05-05 16:33 | 31.78843 | -14.92219 | 34128 ft | 455 kts | 32° |
| 2026-05-05 16:34 | 31.84102 | -14.88098 | 34126 ft | 453 kts | 32° |
| 2026-05-05 16:34 | 31.89338 | -14.83981 | 34122 ft | 452 kts | 32° |
| 2026-05-05 16:35 | 31.94538 | -14.79893 | 34118 ft | 451 kts | 32° |
| 2026-05-05 16:35 | 31.99759 | -14.75790 | 34118 ft | 450 kts | 32° |
| 2026-05-05 16:36 | 32.04977 | -14.71675 | 34133 ft | 450 kts | 32° |
| 2026-05-05 16:36 | 32.10164 | -14.67580 | 34123 ft | 449 kts | 32° |
| 2026-05-05 16:37 | 32.15350 | -14.63476 | 34123 ft | 448 kts | 32° |
| 2026-05-05 16:37 | 32.20497 | -14.59400 | 34122 ft | 448 kts | 32° |
| 2026-05-05 16:38 | 32.25677 | -14.55295 | 34127 ft | 447 kts | 32° |
| 2026-05-05 16:38 | 32.30840 | -14.51193 | 34121 ft | 447 kts | 32° |
| 2026-05-05 16:39 | 32.35973 | -14.47114 | 34134 ft | 446 kts | 32° |
| 2026-05-05 16:39 | 32.41125 | -14.43005 | 34131 ft | 446 kts | 32° |
| 2026-05-05 16:40 | 32.46274 | -14.38902 | 34135 ft | 445 kts | 32° |
| 2026-05-05 16:40 | 32.51392 | -14.34820 | 34129 ft | 445 kts | 32° |
| 2026-05-05 16:41 | 32.56541 | -14.30710 | 34134 ft | 445 kts | 32° |
| 2026-05-05 16:41 | 32.61647 | -14.26622 | 34130 ft | 445 kts | 32° |
| 2026-05-05 16:42 | 32.66781 | -14.22506 | 34126 ft | 445 kts | 32° |
| 2026-05-05 16:42 | 32.71917 | -14.18388 | 34134 ft | 444 kts | 32° |
| 2026-05-05 16:43 | 32.77049 | -14.14269 | 34137 ft | 444 kts | 32° |
| 2026-05-05 16:43 | 32.82141 | -14.10164 | 34135 ft | 444 kts | 32° |
| 2026-05-05 16:44 | 32.87258 | -14.06034 | 34129 ft | 444 kts | 32° |
| 2026-05-05 16:44 | 32.92335 | -14.01921 | 34138 ft | 444 kts | 32° |
| 2026-05-05 16:45 | 32.97471 | -13.97766 | 34127 ft | 445 kts | 32° |
| 2026-05-05 16:45 | 33.02611 | -13.93618 | 34120 ft | 446 kts | 32° |
| 2026-05-05 16:46 | 33.07721 | -13.89478 | 34116 ft | 446 kts | 32° |
| 2026-05-05 16:46 | 33.12865 | -13.85294 | 34127 ft | 447 kts | 31° |
| 2026-05-05 16:47 | 33.18002 | -13.81107 | 34138 ft | 447 kts | 32° |
| 2026-05-05 16:47 | 33.23131 | -13.76901 | 34139 ft | 447 kts | 32° |
| 2026-05-05 16:48 | 33.28233 | -13.72706 | 34132 ft | 447 kts | 32° |
| 2026-05-05 16:48 | 33.33378 | -13.68482 | 34130 ft | 447 kts | 32° |
| 2026-05-05 16:49 | 33.38478 | -13.64299 | 34131 ft | 447 kts | 32° |
| 2026-05-05 16:49 | 33.43610 | -13.60071 | 34128 ft | 447 kts | 32° |
| 2026-05-05 16:50 | 33.48706 | -13.55860 | 34130 ft | 447 kts | 32° |
| 2026-05-05 16:50 | 33.53847 | -13.51603 | 34119 ft | 448 kts | 32° |
| 2026-05-05 16:51 | 33.58986 | -13.47335 | 34127 ft | 448 kts | 32° |
| 2026-05-05 16:51 | 33.64094 | -13.43097 | 34143 ft | 447 kts | 32° |
| 2026-05-05 16:52 | 33.69218 | -13.38838 | 34147 ft | 447 kts | 32° |
| 2026-05-05 16:52 | 33.74327 | -13.34593 | 34138 ft | 446 kts | 32° |
| 2026-05-05 16:53 | 33.79403 | -13.30371 | 34134 ft | 446 kts | 32° |
| 2026-05-05 16:53 | 33.84512 | -13.26102 | 34129 ft | 446 kts | 32° |
| 2026-05-05 16:54 | 33.89628 | -13.21831 | 34127 ft | 447 kts | 32° |
| 2026-05-05 16:54 | 33.94740 | -13.17552 | 34126 ft | 447 kts | 32° |
| 2026-05-05 16:55 | 33.99825 | -13.13290 | 34125 ft | 447 kts | 32° |
| 2026-05-05 16:55 | 34.04946 | -13.09007 | 34149 ft | 447 kts | 33° |
| 2026-05-05 16:56 | 34.10027 | -13.04742 | 34138 ft | 447 kts | 33° |
| 2026-05-05 16:56 | 34.15136 | -13.00442 | 34137 ft | 447 kts | 33° |
| 2026-05-05 16:57 | 34.20240 | -12.96129 | 34140 ft | 447 kts | 33° |
| 2026-05-05 16:57 | 34.25321 | -12.91832 | 34136 ft | 447 kts | 33° |
| 2026-05-05 16:58 | 34.30429 | -12.87532 | 34137 ft | 447 kts | 32° |
| 2026-05-05 16:58 | 34.35526 | -12.83273 | 34130 ft | 448 kts | 32° |
| 2026-05-05 16:59 | 34.40669 | -12.78969 | 34124 ft | 448 kts | 32° |
| 2026-05-05 16:59 | 34.45780 | -12.74675 | 34125 ft | 449 kts | 32° |
| 2026-05-05 17:00 | 34.50917 | -12.70341 | 34127 ft | 449 kts | 32° |
| 2026-05-05 17:00 | 34.56063 | -12.66010 | 34129 ft | 449 kts | 32° |
| 2026-05-05 17:01 | 34.61170 | -12.61704 | 34136 ft | 450 kts | 32° |
| 2026-05-05 17:01 | 34.66312 | -12.57356 | 34127 ft | 451 kts | 32° |
| 2026-05-05 17:02 | 34.71462 | -12.52989 | 34127 ft | 451 kts | 32° |
| 2026-05-05 17:02 | 34.76619 | -12.48617 | 34128 ft | 451 kts | 32° |
| 2026-05-05 17:03 | 34.81744 | -12.44268 | 34129 ft | 452 kts | 32° |
| 2026-05-05 17:03 | 34.86039 | -12.40619 | 34134 ft | 452 kts | 32° |
| 2026-05-05 17:04 | 34.91202 | -12.36222 | 34136 ft | 452 kts | 32° |
| 2026-05-05 17:04 | 34.96371 | -12.31807 | 34130 ft | 453 kts | 32° |
| 2026-05-05 17:05 | 35.01508 | -12.27407 | 34130 ft | 453 kts | 32° |
| 2026-05-05 17:05 | 35.06680 | -12.22981 | 34130 ft | 454 kts | 32° |
| 2026-05-05 17:06 | 35.11860 | -12.18546 | 34131 ft | 454 kts | 32° |
| 2026-05-05 17:06 | 35.17009 | -12.14139 | 34134 ft | 454 kts | 32° |
| 2026-05-05 17:07 | 35.22194 | -12.09679 | 34125 ft | 456 kts | 32° |
| 2026-05-05 17:07 | 35.27382 | -12.05193 | 34122 ft | 456 kts | 32° |
| 2026-05-05 17:08 | 35.32576 | -12.00711 | 34131 ft | 457 kts | 32° |
| 2026-05-05 17:08 | 35.37749 | -11.96241 | 34131 ft | 457 kts | 32° |
| 2026-05-05 17:09 | 35.42953 | -11.91745 | 34136 ft | 457 kts | 32° |
| 2026-05-05 17:09 | 35.48148 | -11.87249 | 34137 ft | 457 kts | 32° |
| 2026-05-05 17:10 | 35.53325 | -11.82766 | 34135 ft | 457 kts | 32° |
| 2026-05-05 17:10 | 35.58526 | -11.78242 | 34135 ft | 457 kts | 32° |
| 2026-05-05 17:11 | 35.63708 | -11.73714 | 34131 ft | 457 kts | 32° |
| 2026-05-05 17:11 | 35.68871 | -11.69204 | 34147 ft | 457 kts | 32° |
| 2026-05-05 17:12 | 35.74073 | -11.64661 | 34137 ft | 457 kts | 32° |
| 2026-05-05 17:12 | 35.79245 | -11.60142 | 34130 ft | 458 kts | 32° |
| 2026-05-05 17:13 | 35.84447 | -11.55586 | 34129 ft | 458 kts | 32° |
| 2026-05-05 17:13 | 35.89618 | -11.51046 | 34129 ft | 458 kts | 32° |
| 2026-05-05 17:14 | 35.94855 | -11.46533 | 34131 ft | 456 kts | 27° |
| 2026-05-05 17:14 | 36.00605 | -11.43561 | 34135 ft | 447 kts | 10° |
| 2026-05-05 17:15 | 36.06634 | -11.41625 | 34126 ft | 447 kts | 10° |
| 2026-05-05 17:15 | 36.12670 | -11.39682 | 34126 ft | 448 kts | 10° |
| 2026-05-05 17:16 | 36.18720 | -11.37727 | 34130 ft | 448 kts | 10° |
| 2026-05-05 17:16 | 36.24721 | -11.35785 | 34150 ft | 448 kts | 10° |
| 2026-05-05 17:17 | 36.30764 | -11.33819 | 34153 ft | 447 kts | 9° |
| 2026-05-05 17:17 | 36.36791 | -11.31864 | 34156 ft | 447 kts | 9° |
| 2026-05-05 17:18 | 36.42789 | -11.29908 | 34144 ft | 447 kts | 9° |
| 2026-05-05 17:18 | 36.48811 | -11.27950 | 34154 ft | 447 kts | 9° |
| 2026-05-05 17:19 | 36.54834 | -11.25986 | 34144 ft | 447 kts | 9° |
| 2026-05-05 17:19 | 36.60812 | -11.24039 | 34135 ft | 446 kts | 9° |
| 2026-05-05 17:20 | 36.66822 | -11.22074 | 34138 ft | 446 kts | 9° |
| 2026-05-05 17:20 | 36.72845 | -11.20088 | 34158 ft | 446 kts | 10° |
| 2026-05-05 17:21 | 36.78815 | -11.18131 | 34157 ft | 446 kts | 9° |
| 2026-05-05 17:22 | 36.87833 | -11.15175 | 34152 ft | 445 kts | 10° |
| 2026-05-05 17:22 | 36.93831 | -11.13201 | 34143 ft | 445 kts | 10° |
| 2026-05-05 17:23 | 36.99791 | -11.11232 | 34150 ft | 445 kts | 10° |
| 2026-05-05 17:23 | 37.05794 | -11.09236 | 34142 ft | 445 kts | 10° |
| 2026-05-05 17:24 | 37.11794 | -11.07245 | 34141 ft | 445 kts | 10° |
| 2026-05-05 17:24 | 37.17799 | -11.05253 | 34133 ft | 445 kts | 10° |
| 2026-05-05 17:25 | 37.23766 | -11.03264 | 34148 ft | 446 kts | 9° |
| 2026-05-05 17:25 | 37.29778 | -11.01263 | 34135 ft | 446 kts | 9° |
| 2026-05-05 17:26 | 37.35760 | -10.99281 | 34133 ft | 446 kts | 9° |
| 2026-05-05 17:26 | 37.41779 | -10.97278 | 34131 ft | 447 kts | 9° |
| 2026-05-05 17:27 | 37.47803 | -10.95257 | 34147 ft | 447 kts | 9° |
| 2026-05-05 17:27 | 37.53812 | -10.93238 | 34144 ft | 447 kts | 9° |
| 2026-05-05 17:28 | 37.59789 | -10.91225 | 34137 ft | 447 kts | 9° |
| 2026-05-05 17:28 | 37.65809 | -10.89197 | 34137 ft | 446 kts | 9° |
| 2026-05-05 17:29 | 37.71819 | -10.87181 | 34151 ft | 446 kts | 8° |
| 2026-05-05 17:29 | 37.77787 | -10.85172 | 34130 ft | 447 kts | 8° |
| 2026-05-05 17:30 | 37.83807 | -10.83139 | 34128 ft | 447 kts | 9° |
| 2026-05-05 17:30 | 37.89832 | -10.81099 | 34124 ft | 447 kts | 8° |
| 2026-05-05 17:31 | 37.95839 | -10.79065 | 34129 ft | 447 kts | 9° |
| 2026-05-05 17:31 | 38.01826 | -10.77035 | 34127 ft | 447 kts | 9° |
| 2026-05-05 17:32 | 38.07840 | -10.74972 | 34130 ft | 447 kts | 9° |
| 2026-05-05 17:32 | 38.13853 | -10.72909 | 34131 ft | 447 kts | 9° |
| 2026-05-05 17:33 | 38.19840 | -10.70870 | 34133 ft | 447 kts | 8° |
| 2026-05-05 17:33 | 38.25863 | -10.68819 | 34123 ft | 448 kts | 8° |
| 2026-05-05 17:34 | 38.31894 | -10.66751 | 34122 ft | 448 kts | 8° |
| 2026-05-05 17:34 | 38.37889 | -10.64691 | 34120 ft | 448 kts | 8° |
| 2026-05-05 17:35 | 38.43923 | -10.62623 | 34131 ft | 449 kts | 8° |
| 2026-05-05 17:35 | 38.49928 | -10.60556 | 34122 ft | 449 kts | 8° |
| 2026-05-05 17:36 | 38.55982 | -10.58467 | 34118 ft | 449 kts | 8° |
| 2026-05-05 17:36 | 38.61996 | -10.56385 | 34115 ft | 449 kts | 8° |
| 2026-05-05 17:37 | 38.68038 | -10.54288 | 34140 ft | 449 kts | 8° |
| 2026-05-05 17:37 | 38.74088 | -10.52194 | 34133 ft | 449 kts | 8° |
| 2026-05-05 17:38 | 38.80092 | -10.50109 | 34126 ft | 449 kts | 8° |
| 2026-05-05 17:38 | 38.86124 | -10.48010 | 34122 ft | 449 kts | 8° |
| 2026-05-05 17:39 | 38.92124 | -10.45923 | 34147 ft | 448 kts | 8° |
| 2026-05-05 17:39 | 38.98144 | -10.43818 | 34141 ft | 447 kts | 8° |
| 2026-05-05 17:40 | 39.04159 | -10.41708 | 34130 ft | 447 kts | 8° |
| 2026-05-05 17:40 | 39.10131 | -10.39617 | 34125 ft | 447 kts | 8° |
| 2026-05-05 17:41 | 39.16137 | -10.37513 | 34149 ft | 446 kts | 9° |
| 2026-05-05 17:41 | 39.22079 | -10.35423 | 34144 ft | 444 kts | 9° |
| 2026-05-05 17:42 | 39.28050 | -10.33312 | 34141 ft | 443 kts | 9° |
| 2026-05-05 17:42 | 39.34007 | -10.31220 | 34135 ft | 443 kts | 9° |
| 2026-05-05 17:43 | 39.39951 | -10.29124 | 34145 ft | 442 kts | 10° |
| 2026-05-05 17:43 | 39.45861 | -10.27030 | 34134 ft | 441 kts | 10° |
| 2026-05-05 17:44 | 39.51796 | -10.24919 | 34132 ft | 441 kts | 10° |
| 2026-05-05 17:44 | 39.57677 | -10.22831 | 34124 ft | 440 kts | 10° |
| 2026-05-05 17:45 | 39.63600 | -10.20721 | 34136 ft | 440 kts | 11° |
| 2026-05-05 17:45 | 39.69477 | -10.18627 | 34140 ft | 439 kts | 10° |
| 2026-05-05 17:46 | 39.75375 | -10.16511 | 34132 ft | 439 kts | 10° |
| 2026-05-05 17:46 | 39.81277 | -10.14399 | 34140 ft | 439 kts | 9° |
| 2026-05-05 17:47 | 39.87130 | -10.12305 | 34136 ft | 438 kts | 10° |
| 2026-05-05 17:47 | 39.93015 | -10.10190 | 34130 ft | 438 kts | 10° |
| 2026-05-05 17:48 | 39.98886 | -10.08079 | 34122 ft | 437 kts | 10° |
| 2026-05-05 17:48 | 40.04718 | -10.05984 | 34134 ft | 437 kts | 9° |
| 2026-05-05 17:49 | 40.10597 | -10.03863 | 34129 ft | 437 kts | 9° |
| 2026-05-05 17:49 | 40.16320 | -10.01782 | 34154 ft | 409 kts | 9° |
| 2026-05-05 17:49 | 40.18920 | -10.00811 | 34112 ft | 364 kts | 9° |
| 2026-05-05 17:50 | 40.21224 | -9.99941 | 34112 ft | 328 kts | 8° |
| 2026-05-05 17:50 | 40.24697 | -9.98839 | 34016 ft | 273 kts | 355° |
| 2026-05-05 17:50 | 40.26525 | -9.98977 | 32171 ft | 266 kts | 339° |
| 2026-05-05 17:51 | 40.28593 | -10.00994 | 28045 ft | 308 kts | 293° |
| 2026-05-05 17:51 | 40.28672 | -10.03683 | 26655 ft | 295 kts | 255° |
| 2026-05-05 17:51 | 40.28256 | -10.04739 | 26182 ft | 292 kts | 238° |